createdAt,value
2022-12-03T00:00:46.935Z,100
2022-12-03T00:05:48.946Z,100
2022-12-03T00:10:46.955Z,100
2022-12-03T00:15:46.977Z,100
2022-12-03T00:20:46.930Z,99.9
2022-12-03T00:25:46.934Z,99.5
2022-12-03T00:30:46.992Z,99.4
2022-12-03T00:35:46.928Z,99.4
2022-12-03T00:40:46.999Z,99.5
2022-12-03T00:45:46.961Z,99.8
2022-12-03T00:50:46.941Z,100
2022-12-03T00:55:47.037Z,99.8
2022-12-03T01:00:46.948Z,99.8
2022-12-03T01:05:46.970Z,99.8
2022-12-03T01:10:46.910Z,99.9
2022-12-03T01:15:46.976Z,100
2022-12-03T01:20:46.935Z,100
2022-12-03T01:25:46.908Z,100
2022-12-03T01:30:46.944Z,100
2022-12-03T01:35:46.976Z,99.7
2022-12-03T01:40:46.917Z,99.5
2022-12-03T01:45:46.903Z,99.1
2022-12-03T01:50:46.902Z,99.1
2022-12-03T01:55:48.725Z,98.8
2022-12-03T02:00:46.890Z,98.5
2022-12-03T02:05:46.900Z,98.4
2022-12-03T02:10:46.883Z,98.4
2022-12-03T02:15:46.939Z,98.4
2022-12-03T02:20:46.891Z,98.3
2022-12-03T02:25:46.893Z,98.4
2022-12-03T02:30:46.891Z,98.4
2022-12-03T02:35:46.885Z,98.5
2022-12-03T02:40:46.882Z,98.8
2022-12-03T02:45:46.893Z,98.5
2022-12-03T02:50:46.872Z,98.7
2022-12-03T02:55:46.879Z,98.9
2022-12-03T03:00:46.942Z,98.6
2022-12-03T03:05:46.862Z,98.6
2022-12-03T03:10:46.877Z,98.5
2022-12-03T03:15:46.871Z,98.4
2022-12-03T03:20:46.869Z,98.8
2022-12-03T03:25:46.884Z,98.8
2022-12-03T03:30:46.873Z,98.8
2022-12-03T03:35:46.868Z,98.9
2022-12-03T03:40:46.877Z,98.8
2022-12-03T03:45:46.944Z,98.7
2022-12-03T03:50:46.862Z,98.8
2022-12-03T03:55:46.860Z,98.9
2022-12-03T04:00:46.902Z,99.3
2022-12-03T04:05:46.857Z,99.3
2022-12-03T04:10:46.849Z,99.5
2022-12-03T04:15:46.848Z,99.9
2022-12-03T04:25:46.873Z,99.9
2022-12-03T04:30:46.911Z,100
2022-12-03T04:35:46.967Z,100
2022-12-03T04:40:46.847Z,100
2022-12-03T04:45:46.901Z,100
2022-12-03T04:55:46.843Z,99.8
2022-12-03T05:10:46.829Z,98.7
2022-12-03T05:15:46.827Z,98.5
2022-12-03T05:20:52.905Z,98.5
2022-12-03T05:25:46.813Z,98.5
2022-12-03T05:30:46.909Z,98.5
2022-12-03T05:35:46.816Z,98.5
2022-12-03T05:40:46.822Z,98.5
2022-12-03T05:45:46.953Z,98.7
2022-12-03T05:50:46.822Z,98.8
2022-12-03T05:55:46.804Z,98.9
2022-12-03T06:00:46.835Z,98.9
2022-12-03T06:05:46.827Z,99
2022-12-03T06:10:46.814Z,98.9
2022-12-03T06:15:46.848Z,98.9
2022-12-03T06:20:46.839Z,98.9
2022-12-03T06:25:46.803Z,98.6
2022-12-03T06:30:46.861Z,98.5
2022-12-03T06:35:46.814Z,98.5
2022-12-03T06:40:46.792Z,98.5
2022-12-03T06:45:47.945Z,98.1
2022-12-03T06:50:46.811Z,97.5
2022-12-03T06:55:46.795Z,97.1
2022-12-03T07:00:46.801Z,96.8
2022-12-03T07:05:46.794Z,96.8
2022-12-03T07:10:46.798Z,96.8
2022-12-03T07:15:46.839Z,96.6
2022-12-03T07:20:46.781Z,96.1
2022-12-03T07:25:46.773Z,95.9
2022-12-03T07:30:46.790Z,95.9
2022-12-03T07:35:46.794Z,96
2022-12-03T07:40:46.785Z,96.2
2022-12-03T07:45:46.763Z,96.1
2022-12-03T07:50:46.786Z,95.8
2022-12-03T07:55:46.758Z,95.9
2022-12-03T08:00:46.850Z,95.6
2022-12-03T08:05:46.784Z,95.6
2022-12-03T08:10:46.774Z,95.4
2022-12-03T08:15:46.751Z,95.4
2022-12-03T08:20:46.799Z,95.1
2022-12-03T08:25:46.761Z,95.2
2022-12-03T08:30:46.754Z,95.1
2022-12-03T08:35:46.843Z,95.4
2022-12-03T08:40:46.754Z,95.5
2022-12-03T08:45:46.788Z,95
2022-12-03T08:50:46.748Z,95
2022-12-03T08:55:46.735Z,95.4
2022-12-03T09:00:46.800Z,95.4
2022-12-03T09:05:46.748Z,95.3
2022-12-03T09:10:46.753Z,95
2022-12-03T09:15:46.736Z,95
2022-12-03T09:20:46.735Z,94.7
2022-12-03T09:25:46.734Z,95
2022-12-03T09:30:46.741Z,94.7
2022-12-03T09:35:46.735Z,94.7
2022-12-03T09:40:46.741Z,94.8
2022-12-03T09:45:46.879Z,94.5
2022-12-03T09:50:46.737Z,94.1
2022-12-03T09:55:46.742Z,93.9
2022-12-03T10:00:46.729Z,93.4
2022-12-03T10:05:48.262Z,93.2
2022-12-03T10:10:46.735Z,93.2
2022-12-03T10:15:46.715Z,93.3
2022-12-03T10:20:46.714Z,93.4
2022-12-03T10:25:46.723Z,93.1
2022-12-03T10:30:46.769Z,93.2
2022-12-03T10:35:46.717Z,92.5
2022-12-03T10:40:46.694Z,93.1
2022-12-03T10:45:46.819Z,93.1
2022-12-03T10:50:46.731Z,93.2
2022-12-03T10:55:46.694Z,92.9
2022-12-03T11:00:46.712Z,92.9
2022-12-03T11:05:46.688Z,92.4
2022-12-03T11:10:46.724Z,92.2
2022-12-03T11:15:46.750Z,92.1
2022-12-03T11:20:46.710Z,92.1
2022-12-03T11:25:46.782Z,92.4
2022-12-03T11:30:46.796Z,92.3
2022-12-03T11:35:46.690Z,92.2
2022-12-03T11:40:46.671Z,92.2
2022-12-03T11:45:46.676Z,92.5
2022-12-03T11:50:46.678Z,92.7
2022-12-03T11:55:46.670Z,93
2022-12-03T12:00:46.685Z,93.1
2022-12-03T12:05:46.682Z,93.9
2022-12-03T12:10:46.670Z,94.1
2022-12-03T12:15:46.694Z,94.2
2022-12-03T12:20:46.666Z,94.2
2022-12-03T12:25:50.938Z,94.1
2022-12-03T12:30:46.675Z,94.1
2022-12-03T12:35:46.684Z,94.3
2022-12-03T12:40:46.650Z,95.1
2022-12-03T12:45:46.641Z,95.1
2022-12-03T12:50:46.665Z,95.6
2022-12-03T12:55:46.637Z,96.3
2022-12-03T13:00:46.734Z,96.8
2022-12-03T13:05:46.647Z,96.5
2022-12-03T13:10:46.631Z,96.3
2022-12-03T13:15:46.637Z,96
2022-12-03T13:20:46.644Z,95.8
2022-12-03T13:26:13.118Z,96.2
2022-12-03T13:30:46.631Z,96.2
2022-12-03T13:35:46.630Z,95.8
2022-12-03T13:40:46.613Z,95.4
2022-12-03T13:45:46.739Z,95.5
2022-12-03T13:50:46.652Z,95.9
2022-12-03T13:55:46.624Z,96.4
2022-12-03T14:00:46.708Z,96.5
2022-12-03T14:05:46.614Z,96.8
2022-12-03T14:10:46.618Z,97.6
2022-12-03T14:15:46.617Z,97.7
2022-12-03T14:20:46.619Z,97.5
2022-12-03T14:25:46.614Z,96.9
2022-12-03T14:30:46.629Z,97.3
2022-12-03T14:35:46.609Z,97.2
2022-12-03T14:40:46.593Z,96.9
2022-12-03T14:45:46.693Z,96.8
2022-12-03T14:50:46.598Z,96.8
2022-12-03T14:55:46.607Z,97.3
2022-12-03T15:00:46.604Z,97
2022-12-03T15:05:46.607Z,97.2
2022-12-03T15:10:46.590Z,97.3
2022-12-03T15:15:46.618Z,97.3
2022-12-03T15:20:46.592Z,97.2
2022-12-03T15:25:46.581Z,97.5
2022-12-03T15:30:46.585Z,97.6
2022-12-03T15:35:46.607Z,97.8
2022-12-03T15:40:46.590Z,98.3
2022-12-03T15:45:46.652Z,98.4
2022-12-03T15:50:46.584Z,98.4
2022-12-03T15:55:46.577Z,97.8
2022-12-03T16:00:46.560Z,97.8
2022-12-03T16:05:46.582Z,97.7
2022-12-03T16:10:46.569Z,98
2022-12-03T16:15:46.821Z,98.4
2022-12-03T16:20:46.584Z,98.4
2022-12-03T16:25:46.555Z,97.7
2022-12-03T16:30:46.668Z,97.5
2022-12-03T16:35:46.578Z,97.3
2022-12-03T16:40:46.664Z,97.7
2022-12-03T16:45:46.584Z,98
2022-12-03T16:50:46.560Z,98.4
2022-12-03T16:55:46.541Z,98.7
2022-12-03T17:00:46.563Z,99
2022-12-03T17:05:46.574Z,99.1
2022-12-03T17:10:46.621Z,99.3
2022-12-03T17:15:46.592Z,99.4
2022-12-03T17:20:46.558Z,99.3
2022-12-03T17:25:46.552Z,99.5
2022-12-03T17:30:46.611Z,99.4
2022-12-03T17:35:46.543Z,99.4
2022-12-03T17:40:46.549Z,99.5
2022-12-03T17:45:46.559Z,99.5
2022-12-03T17:50:46.545Z,99.6
2022-12-03T17:55:46.534Z,99.6
2022-12-03T18:00:46.539Z,99.6
2022-12-03T18:05:46.523Z,99.5
2022-12-03T18:10:46.531Z,99.7
2022-12-03T18:15:46.550Z,99.7
2022-12-03T18:20:46.522Z,99.7
2022-12-03T18:25:46.520Z,99.7
2022-12-03T18:30:52.146Z,99.8
2022-12-03T18:35:46.518Z,99.7
2022-12-03T18:40:46.518Z,99.7
2022-12-03T18:50:46.517Z,99.9
2022-12-03T18:55:46.508Z,100
2022-12-03T19:00:46.584Z,100
2022-12-03T19:05:46.526Z,100
2022-12-03T19:15:46.527Z,100
2022-12-03T19:20:46.502Z,100
2022-12-03T19:25:46.501Z,100
2022-12-03T19:35:46.497Z,100
2022-12-03T19:45:46.541Z,100
2022-12-03T19:55:46.507Z,100
2022-12-03T20:00:46.508Z,100
2022-12-03T20:05:46.497Z,100
2022-12-03T20:10:46.507Z,100
2022-12-03T20:15:46.504Z,100
2022-12-03T20:20:46.494Z,100
2022-12-03T20:25:46.482Z,100
2022-12-03T20:30:46.530Z,100
2022-12-03T20:35:46.507Z,100
2022-12-03T20:40:46.497Z,100
2022-12-03T20:45:46.562Z,100
2022-12-03T20:50:46.490Z,100
2022-12-03T20:55:46.482Z,100
2022-12-03T21:00:46.485Z,100
2022-12-03T21:05:46.484Z,100
2022-12-03T21:10:46.474Z,99.8
2022-12-03T21:15:46.485Z,99.7
2022-12-03T21:20:46.489Z,99.8
2022-12-03T21:25:46.464Z,99.9
2022-12-03T21:30:46.523Z,99.9
2022-12-03T21:35:46.457Z,99.9
2022-12-03T21:40:46.482Z,99.9
2022-12-03T21:45:46.545Z,99.8
2022-12-03T21:55:46.455Z,99.5
2022-12-03T22:00:46.467Z,99.6
2022-12-03T22:05:46.461Z,99.7
2022-12-03T22:10:46.460Z,99.8
2022-12-03T22:15:46.553Z,99.8
2022-12-03T22:20:46.446Z,100
2022-12-03T22:25:46.466Z,100
2022-12-03T22:30:46.510Z,100
2022-12-03T22:35:46.440Z,99.8
2022-12-03T22:40:46.452Z,99.7
2022-12-03T22:45:46.432Z,99.8
2022-12-03T22:50:46.436Z,99.8
2022-12-03T22:55:46.486Z,100
2022-12-03T23:11:46.060Z,100
2022-12-03T23:15:46.510Z,100
2022-12-03T23:20:46.431Z,100
2022-12-03T23:25:46.433Z,100
2022-12-03T23:30:46.540Z,100
2022-12-03T23:35:46.429Z,100
2022-12-03T23:40:48.167Z,100
2022-12-03T23:45:46.441Z,100
2022-12-03T23:50:46.413Z,100
2022-12-03T23:55:46.425Z,100
